Terminal Aerodrome Forecast
Issued by NWS

Home | Current Version | Previous Version | Graphics & Text | Print | Product List | Glossary On
Versions: 1 2 3 4 5 6 7 8 9 10 11 12 13 14 15 16 17 18 19
000
FTUS43 KBIS 161100
TAFJMS
TAF
KJMS 161120Z 1612/1712 22006KT P6SM SCT035 SCT060 OVC090
     FM161300 30007KT P6SM SCT050 BKN080
     FM161500 36014G20KT P6SM SCT060 BKN080
     FM162000 35014KT P6SM SCT080
     FM170300 35005KT P6SM SKC=

USA.gov is the U.S. government's official web portal to all federal, state and local government web resources and services.